Terminal Aerodrome Forecast
Issued by NWS Lake Charles, LA

Home | Current Version | Previous Version | Text Only | Print | Product List | Glossary On
Versions: 1 2 3 4 5 6 7 8 9 10 11 12 13 14
000
FTUS44 KLCH 290200 AAB
TAFLFT
TAF AMD
KLFT 290208Z 2902/2924 25005KT P6SM VCTS SCT025CB
      TEMPO 2902/2903 36015G26KT 1SM -TSRA BKN003CB
     FM290600 29005KT P6SM FEW030
     FM290900 36004KT P6SM SCT250
     FM291500 03007KT P6SM SKC=

USA.gov is the U.S. government's official web portal to all federal, state and local government web resources and services.